Malin, Oregon
Current Conditions -  °F | °C
As of 4:53 PM on Sunday 21 Dec 2014 (Local Time) from KLMT Reporting Station
Overcast Overcast  
Wind Chill: 51°   Ceiling: 2500
Heat Index: 51°   Visibility: 10mi
Dew Point: 44°   Wind: 33mph
Humidity: 77%   Direction: 270°W
Pressure: 30.19"   Gusts: 43mph
Location:  42.01°N, 121.41°W
Report Text: KLMT 220053Z 27029G37KT 10SM FEW017 BKN025 OVC038 11/07 A3019 RMK AO2 PK WND 27037/0052 RAB15E43 SLP208 P0000 T01060067
Loading
Personal Weather Stations






























Interactive Weather Map New forecast layout! Learn more

10-Day Weather Forecast

Advertisements
Track Severe Weather on mobile